Time;durP1;ratioP1;P1;durP2;ratioP2;P2;SDS_P1;SDS_P2;PMS_P1;PMS_P2;Temp;Humidity;BMP_temperature;BMP_pressure;BME280_temperature;BME280_humidity;BME280_pressure;Samples;Min_cycle;Max_cycle;Signal;HPM_P1;HPM_P2
2022/05/08 00:00:43;;;;;;;;;26.00;24.75;;;;;;;;5062762;28;51189;-48
2022/05/08 00:03:08;;;;;;;;;27.50;27.50;;;;;;;;5056152;28;51066;-48
2022/05/08 00:05:34;;;;;;;;;32.00;28.00;;;;;;;;5067840;28;51944;-48
2022/05/08 00:07:59;;;;;;;;;24.50;24.25;;;;;;;;5052735;28;51108;-51
2022/05/08 00:10:24;;;;;;;;;30.25;28.50;;;;;;;;5060440;28;50993;-55
2022/05/08 00:12:49;;;;;;;;;23.00;23.00;;;;;;;;5072896;28;50854;-49
2022/05/08 00:15:14;;;;;;;;;29.00;28.50;;;;;;;;5037203;28;52649;-50
2022/05/08 00:17:39;;;;;;;;;24.75;23.50;;;;;;;;5051599;28;51126;-50
2022/05/08 00:20:06;;;;;;;;;27.75;27.25;;;;;;;;5055493;28;51373;-49
2022/05/08 00:22:31;;;;;;;;;28.00;25.50;;;;;;;;5072820;28;50870;-50
2022/05/08 00:24:56;;;;;;;;;25.75;23.00;;;;;;;;5059036;28;52401;-50
2022/05/08 00:27:22;;;;;;;;;25.25;24.50;;;;;;;;5052697;28;50961;-52
2022/05/08 00:29:47;;;;;;;;;31.75;30.00;;;;;;;;5039144;28;51233;-50
2022/05/08 00:32:12;;;;;;;;;29.50;27.75;;;;;;;;5054184;28;51259;-48
2022/05/08 00:34:38;;;;;;;;;24.50;23.00;;;;;;;;5061699;28;51029;-50
2022/05/08 00:37:03;;;;;;;;;22.00;20.00;;;;;;;;5051372;28;51007;-52
2022/05/08 00:39:28;;;;;;;;;24.75;23.75;;;;;;;;5052124;28;51603;-49
2022/05/08 00:41:54;;;;;;;;;27.75;25.25;;;;;;;;5052213;28;50975;-53
2022/05/08 00:44:19;;;;;;;;;24.50;24.00;;;;;;;;5064530;28;51732;-51
2022/05/08 00:46:44;;;;;;;;;21.00;20.25;;;;;;;;5051396;28;51027;-55
2022/05/08 00:49:09;;;;;;;;;28.50;25.00;;;;;;;;5051897;28;51094;-50
2022/05/08 00:51:35;;;;;;;;;23.25;23.00;;;;;;;;5058992;28;51076;-48
2022/05/08 00:54:03;;;;;;;;;29.75;27.75;;;;;;;;5065666;28;51182;-52
2022/05/08 00:56:28;;;;;;;;;29.50;25.00;;;;;;;;5049945;28;51045;-49
2022/05/08 00:58:54;;;;;;;;;24.75;24.75;;;;;;;;5068497;28;50906;-52
2022/05/08 01:01:19;;;;;;;;;28.00;24.75;;;;;;;;5062062;28;50909;-50
2022/05/08 01:03:45;;;;;;;;;26.50;26.00;;;;;;;;5050823;28;52131;-51
2022/05/08 01:06:11;;;;;;;;;24.00;21.00;;;;;;;;5060562;28;51064;-49
2022/05/08 01:08:37;;;;;;;;;25.25;23.50;;;;;;;;5075560;28;50890;-52
2022/05/08 01:11:04;;;;;;;;;21.00;19.50;;;;;;;;5057818;28;51288;-49
2022/05/08 01:13:29;;;;;;;;;24.00;23.00;;;;;;;;5054298;28;51970;-48
2022/05/08 01:15:55;;;;;;;;;27.50;23.50;;;;;;;;5054984;28;51005;-52
2022/05/08 01:18:20;;;;;;;;;23.00;21.25;;;;;;;;5054342;28;51174;-49
2022/05/08 01:20:46;;;;;;;;;21.25;20.25;;;;;;;;5054491;28;51092;-52
2022/05/08 01:23:12;;;;;;;;;19.25;18.75;;;;;;;;5054035;28;51184;-48
2022/05/08 01:25:45;;;;;;;;;21.00;20.75;;;;;;;;5054981;28;51245;-49
2022/05/08 01:28:11;;;;;;;;;26.00;23.75;;;;;;;;5053806;28;51091;-49
2022/05/08 01:30:38;;;;;;;;;25.00;24.00;;;;;;;;5054653;28;51283;-50
2022/05/08 01:33:03;;;;;;;;;22.50;21.50;;;;;;;;5054082;28;51980;-49
2022/05/08 01:35:28;;;;;;;;;25.00;21.25;;;;;;;;5054497;28;51172;-51
2022/05/08 01:37:54;;;;;;;;;26.75;25.25;;;;;;;;5056035;28;51043;-49
2022/05/08 01:40:19;;;;;;;;;18.75;18.00;;;;;;;;5054300;28;51011;-52
2022/05/08 01:42:45;;;;;;;;;21.75;19.25;;;;;;;;5054647;28;52140;-51
2022/05/08 01:45:11;;;;;;;;;27.50;25.75;;;;;;;;5056217;28;51052;-50
2022/05/08 01:50:22;;;;;;;;;22.50;20.75;;;;;;;;5062590;28;50922;-50
2022/05/08 01:52:47;;;;;;;;;21.00;21.00;;;;;;;;5073686;28;51063;-50
2022/05/08 01:55:13;;;;;;;;;26.00;24.25;;;;;;;;5074824;28;50995;-49
2022/05/08 01:57:38;;;;;;;;;24.00;22.25;;;;;;;;5058500;28;51215;-49
2022/05/08 02:00:04;;;;;;;;;26.00;22.50;;;;;;;;5058040;28;51300;-49
2022/05/08 02:02:30;;;;;;;;;24.75;23.25;;;;;;;;5058034;28;51359;-49
2022/05/08 02:04:56;;;;;;;;;26.75;24.00;;;;;;;;5070025;28;51039;-49
2022/05/08 02:07:21;;;;;;;;;24.25;23.25;;;;;;;;5061288;28;51141;-49
2022/05/08 02:09:46;;;;;;;;;26.00;22.00;;;;;;;;5072709;28;50936;-51
2022/05/08 02:12:11;;;;;;;;;22.25;22.00;;;;;;;;5069639;28;51123;-50
2022/05/08 02:14:37;;;;;;;;;25.25;22.50;;;;;;;;5074398;28;51028;-50
2022/05/08 02:17:03;;;;;;;;;27.50;25.50;;;;;;;;5060108;28;51266;-50
2022/05/08 02:19:28;;;;;;;;;29.50;27.00;;;;;;;;5036242;28;51398;-50
2022/05/08 02:21:53;;;;;;;;;24.75;24.25;;;;;;;;5053874;28;52136;-50
2022/05/08 02:24:19;;;;;;;;;26.00;25.75;;;;;;;;5053644;28;50906;-50
2022/05/08 02:26:44;;;;;;;;;25.00;23.00;;;;;;;;5053862;28;51149;-49
2022/05/08 02:29:09;;;;;;;;;27.75;24.25;;;;;;;;5054269;28;51356;-50
2022/05/08 02:31:36;;;;;;;;;23.25;22.25;;;;;;;;5053516;28;51630;-48
2022/05/08 02:34:01;;;;;;;;;25.50;24.75;;;;;;;;5054648;28;50947;-48
2022/05/08 02:36:27;;;;;;;;;27.25;26.50;;;;;;;;5057604;28;50973;-50
2022/05/08 02:38:52;;;;;;;;;31.00;27.75;;;;;;;;5059370;28;50917;-48
2022/05/08 02:41:17;;;;;;;;;26.25;24.50;;;;;;;;5053368;28;51751;-49
2022/05/08 02:43:42;;;;;;;;;29.50;28.25;;;;;;;;5066156;28;50895;-52
2022/05/08 02:46:08;;;;;;;;;28.00;26.25;;;;;;;;5062151;28;50827;-50
2022/05/08 02:48:33;;;;;;;;;22.75;22.00;;;;;;;;5059088;28;51047;-52
2022/05/08 02:50:58;;;;;;;;;29.25;27.25;;;;;;;;5073698;28;51800;-50
2022/05/08 02:53:24;;;;;;;;;25.25;25.00;;;;;;;;5073927;28;51080;-50
2022/05/08 02:58:33;;;;;;;;;29.25;26.25;;;;;;;;5060323;28;51084;-48
2022/05/08 03:01:01;;;;;;;;;25.00;23.25;;;;;;;;5054303;28;51475;-50
2022/05/08 03:03:27;;;;;;;;;31.75;28.00;;;;;;;;5053440;28;51083;-53
2022/05/08 03:05:52;;;;;;;;;31.75;30.75;;;;;;;;5051380;28;51091;-52
2022/05/08 03:08:18;;;;;;;;;37.50;33.25;;;;;;;;5053582;28;51125;-49
2022/05/08 03:13:28;;;;;;;;;32.00;29.00;;;;;;;;5053436;28;51090;-53
2022/05/08 03:15:53;;;;;;;;;37.75;34.25;;;;;;;;5054008;28;51425;-50
2022/05/08 03:18:19;;;;;;;;;37.50;34.00;;;;;;;;5055096;28;51135;-51
2022/05/08 03:20:44;;;;;;;;;44.25;35.75;;;;;;;;5071917;28;50968;-50
2022/05/08 03:23:09;;;;;;;;;39.25;35.00;;;;;;;;5073665;28;50974;-53
2022/05/08 03:25:34;;;;;;;;;38.00;34.00;;;;;;;;5059147;28;51843;-50
2022/05/08 03:28:00;;;;;;;;;46.25;35.25;;;;;;;;5053421;28;50962;-50
2022/05/08 03:30:25;;;;;;;;;39.25;34.50;;;;;;;;5066614;28;50996;-49
2022/05/08 03:32:51;;;;;;;;;48.75;38.75;;;;;;;;5034688;28;51068;-49
2022/05/08 03:35:16;;;;;;;;;45.50;37.25;;;;;;;;5062775;28;51699;-51
2022/05/08 03:37:41;;;;;;;;;46.25;37.25;;;;;;;;5044286;28;52513;-49
2022/05/08 03:40:07;;;;;;;;;47.50;38.75;;;;;;;;5052782;28;50967;-50
2022/05/08 03:42:32;;;;;;;;;39.00;35.25;;;;;;;;5052638;28;50946;-48
2022/05/08 03:44:57;;;;;;;;;42.50;36.75;;;;;;;;5041114;28;51096;-49
2022/05/08 03:47:23;;;;;;;;;40.00;35.00;;;;;;;;5057029;28;50941;-48
2022/05/08 03:49:48;;;;;;;;;47.25;38.50;;;;;;;;5052917;28;52663;-47
2022/05/08 03:52:14;;;;;;;;;48.50;40.75;;;;;;;;5068604;28;51079;-52
2022/05/08 03:54:39;;;;;;;;;48.00;38.25;;;;;;;;5066182;28;51138;-51
2022/05/08 03:57:05;;;;;;;;;44.00;37.25;;;;;;;;5052395;28;50910;-50
2022/05/08 03:59:31;;;;;;;;;48.00;38.50;;;;;;;;5034261;28;51619;-52
2022/05/08 04:01:56;;;;;;;;;43.75;36.75;;;;;;;;5063602;28;51028;-51
2022/05/08 04:04:21;;;;;;;;;50.50;40.25;;;;;;;;5052570;28;51340;-50
2022/05/08 04:06:46;;;;;;;;;48.75;40.50;;;;;;;;5052606;28;51220;-50
2022/05/08 04:09:12;;;;;;;;;48.25;40.50;;;;;;;;5051963;28;51972;-50
2022/05/08 04:11:37;;;;;;;;;48.00;39.50;;;;;;;;5057333;28;51367;-50
2022/05/08 04:14:02;;;;;;;;;53.00;42.25;;;;;;;;5052715;28;51424;-53
2022/05/08 04:16:27;;;;;;;;;47.25;39.25;;;;;;;;5052166;28;51270;-50
2022/05/08 04:18:52;;;;;;;;;51.00;40.75;;;;;;;;5052254;28;51066;-51
2022/05/08 04:21:18;;;;;;;;;48.00;40.75;;;;;;;;5052589;28;50983;-50
2022/05/08 04:26:28;;;;;;;;;47.75;39.50;;;;;;;;5052073;28;51131;-50
2022/05/08 04:28:54;;;;;;;;;46.50;38.50;;;;;;;;5051201;28;51698;-49
2022/05/08 04:31:19;;;;;;;;;46.25;39.00;;;;;;;;5052167;28;50821;-49
2022/05/08 04:33:44;;;;;;;;;53.25;44.75;;;;;;;;5051905;28;51346;-49
2022/05/08 04:36:09;;;;;;;;;53.75;43.50;;;;;;;;5056707;28;51162;-49
2022/05/08 04:38:35;;;;;;;;;51.25;43.00;;;;;;;;5060112;28;50910;-48
2022/05/08 04:41:00;;;;;;;;;53.00;44.75;;;;;;;;5054069;28;51040;-51
2022/05/08 04:43:25;;;;;;;;;53.25;43.25;;;;;;;;5055767;28;51020;-51
2022/05/08 04:45:50;;;;;;;;;51.50;42.50;;;;;;;;5065173;28;51174;-49
2022/05/08 04:48:16;;;;;;;;;53.25;42.00;;;;;;;;5074090;28;51908;-49
2022/05/08 04:50:41;;;;;;;;;52.00;41.00;;;;;;;;5076024;28;50972;-51
2022/05/08 04:53:06;;;;;;;;;53.50;44.50;;;;;;;;5075694;28;51054;-52
2022/05/08 04:55:31;;;;;;;;;52.00;43.00;;;;;;;;5074935;28;51125;-51
2022/05/08 04:57:57;;;;;;;;;50.50;42.75;;;;;;;;5056778;28;52160;-50
2022/05/08 05:00:22;;;;;;;;;57.50;46.00;;;;;;;;5057131;28;51104;-49
2022/05/08 05:02:47;;;;;;;;;54.00;43.75;;;;;;;;5062192;28;51164;-51
2022/05/08 05:05:12;;;;;;;;;51.75;43.00;;;;;;;;5075991;28;50826;-51
2022/05/08 05:07:40;;;;;;;;;52.25;43.50;;;;;;;;5059685;28;51052;-52
2022/05/08 05:10:06;;;;;;;;;55.00;46.50;;;;;;;;5036514;28;51218;-52
2022/05/08 05:12:32;;;;;;;;;56.50;46.50;;;;;;;;5048276;28;51055;-48
2022/05/08 05:14:59;;;;;;;;;57.75;45.75;;;;;;;;5074979;28;50919;-49
2022/05/08 05:17:25;;;;;;;;;57.25;45.25;;;;;;;;5058773;28;52275;-48
2022/05/08 05:19:50;;;;;;;;;54.50;43.75;;;;;;;;5058955;28;50898;-52
2022/05/08 05:22:19;;;;;;;;;52.25;42.50;;;;;;;;5075440;28;50917;-50
2022/05/08 05:24:45;;;;;;;;;58.00;45.75;;;;;;;;5075948;28;50959;-50
2022/05/08 05:27:10;;;;;;;;;52.75;43.75;;;;;;;;5061582;28;51095;-49
2022/05/08 05:29:35;;;;;;;;;52.50;41.50;;;;;;;;5055169;28;50950;-50
2022/05/08 05:32:00;;;;;;;;;51.00;43.00;;;;;;;;5054370;28;51153;-49
2022/05/08 05:34:25;;;;;;;;;54.50;44.00;;;;;;;;5054233;28;51251;-49
2022/05/08 05:36:51;;;;;;;;;54.00;43.25;;;;;;;;5054718;28;51815;-50
2022/05/08 05:39:16;;;;;;;;;56.50;46.00;;;;;;;;5058931;28;51336;-48
2022/05/08 05:41:41;;;;;;;;;54.75;43.75;;;;;;;;5065709;28;51254;-49
2022/05/08 05:44:06;;;;;;;;;52.50;42.25;;;;;;;;5054776;28;51005;-50
2022/05/08 05:49:15;;;;;;;;;56.25;44.75;;;;;;;;5054781;28;51071;-48
2022/05/08 05:51:41;;;;;;;;;51.50;43.00;;;;;;;;5053250;28;51285;-49
2022/05/08 05:54:06;;;;;;;;;55.25;43.25;;;;;;;;5054693;28;51013;-48
2022/05/08 05:56:31;;;;;;;;;52.75;44.50;;;;;;;;5053724;28;51069;-48
2022/05/08 05:58:56;;;;;;;;;52.50;43.75;;;;;;;;5054579;28;51226;-50
2022/05/08 06:01:21;;;;;;;;;55.00;45.00;;;;;;;;5060985;28;51182;-50
2022/05/08 06:03:47;;;;;;;;;51.25;42.00;;;;;;;;5055006;28;51075;-50
2022/05/08 06:06:14;;;;;;;;;55.25;45.25;;;;;;;;5065440;28;51121;-50
2022/05/08 06:08:39;;;;;;;;;49.50;40.25;;;;;;;;5073187;28;50956;-50
2022/05/08 06:11:04;;;;;;;;;51.50;42.50;;;;;;;;5073006;28;50859;-52
2022/05/08 06:13:30;;;;;;;;;50.25;41.25;;;;;;;;5057426;28;51388;-51
2022/05/08 06:15:55;;;;;;;;;52.75;43.00;;;;;;;;5053978;28;50911;-52
2022/05/08 06:18:20;;;;;;;;;51.50;40.25;;;;;;;;5053848;28;51006;-49
2022/05/08 06:20:45;;;;;;;;;54.50;42.25;;;;;;;;5042939;28;50966;-50
2022/05/08 06:23:11;;;;;;;;;52.75;41.25;;;;;;;;5059880;28;50830;-51
2022/05/08 06:25:40;;;;;;;;;53.25;43.50;;;;;;;;5053678;28;51013;-49
2022/05/08 06:28:05;;;;;;;;;51.50;42.50;;;;;;;;5054140;28;51171;-51
2022/05/08 06:30:31;;;;;;;;;55.75;43.00;;;;;;;;5054050;28;51134;-51
2022/05/08 06:32:56;;;;;;;;;53.75;42.00;;;;;;;;5053606;28;51379;-53
2022/05/08 06:35:21;;;;;;;;;53.75;44.00;;;;;;;;5054353;28;50989;-50
2022/05/08 06:37:46;;;;;;;;;52.25;41.50;;;;;;;;5059701;28;51300;-50
2022/05/08 06:40:11;;;;;;;;;51.00;43.00;;;;;;;;5067746;28;51087;-49
2022/05/08 06:42:38;;;;;;;;;51.75;41.75;;;;;;;;5049173;28;51002;-52
2022/05/08 06:45:03;;;;;;;;;47.50;39.50;;;;;;;;5056804;28;51161;-50
2022/05/08 06:47:28;;;;;;;;;45.75;38.50;;;;;;;;5073534;28;50976;-50
2022/05/08 06:49:53;;;;;;;;;52.25;41.25;;;;;;;;5063215;28;51010;-50
2022/05/08 06:52:19;;;;;;;;;51.25;41.50;;;;;;;;5053506;28;51091;-49
2022/05/08 06:54:44;;;;;;;;;52.50;41.50;;;;;;;;5053361;28;51197;-49
2022/05/08 06:57:11;;;;;;;;;47.00;39.75;;;;;;;;5066306;28;51150;-50
2022/05/08 07:02:20;;;;;;;;;49.25;40.00;;;;;;;;5056566;28;51063;-52
2022/05/08 07:04:45;;;;;;;;;53.75;41.25;;;;;;;;5059139;28;51729;-49
2022/05/08 07:07:11;;;;;;;;;49.25;41.00;;;;;;;;5061826;28;51091;-50
2022/05/08 07:09:36;;;;;;;;;50.50;41.75;;;;;;;;5058844;28;50963;-49
2022/05/08 07:12:01;;;;;;;;;58.25;46.25;;;;;;;;5037523;28;51170;-51
2022/05/08 07:14:27;;;;;;;;;52.00;41.00;;;;;;;;5066622;28;51872;-50
2022/05/08 07:16:52;;;;;;;;;49.25;39.25;;;;;;;;5052148;28;51179;-50
2022/05/08 07:19:17;;;;;;;;;49.00;40.75;;;;;;;;5054775;28;51187;-50
2022/05/08 07:21:42;;;;;;;;;32.25;31.50;;;;;;;;5063064;28;51093;-50
2022/05/08 07:24:08;;;;;;;;;48.25;40.25;;;;;;;;5052141;28;51575;-50
2022/05/08 07:26:33;;;;;;;;;48.50;40.00;;;;;;;;5054080;28;51311;-50
2022/05/08 07:28:59;;;;;;;;;46.25;38.50;;;;;;;;5051266;28;51352;-53
2022/05/08 07:31:27;;;;;;;;;48.00;40.25;;;;;;;;5069436;28;51297;-51
2022/05/08 07:36:38;;;;;;;;;47.00;38.00;;;;;;;;5017086;28;51308;-50
2022/05/08 07:39:03;;;;;;;;;49.75;40.25;;;;;;;;5061208;28;51217;-51
2022/05/08 07:41:30;;;;;;;;;51.00;40.75;;;;;;;;5064278;28;50970;-50
2022/05/08 07:43:55;;;;;;;;;49.00;41.00;;;;;;;;5058773;28;50996;-50
2022/05/08 07:46:20;;;;;;;;;51.00;43.25;;;;;;;;5054674;28;51072;-50
2022/05/08 07:48:45;;;;;;;;;44.75;38.00;;;;;;;;5065019;28;51144;-49
2022/05/08 07:51:11;;;;;;;;;47.50;40.25;;;;;;;;5073489;28;51492;-50
2022/05/08 07:53:36;;;;;;;;;51.75;40.25;;;;;;;;5071793;28;51693;-48
2022/05/08 07:56:01;;;;;;;;;46.50;39.50;;;;;;;;5052367;28;51066;-51
2022/05/08 07:58:33;;;;;;;;;48.25;38.50;;;;;;;;5033918;28;51189;-51
2022/05/08 08:00:58;;;;;;;;;47.00;39.25;;;;;;;;5057098;28;51149;-49
2022/05/08 08:03:25;;;;;;;;;49.50;42.25;;;;;;;;5056843;28;51893;-50
2022/05/08 08:05:50;;;;;;;;;51.00;42.00;;;;;;;;5057518;28;51017;-52
2022/05/08 08:08:17;;;;;;;;;50.75;41.50;;;;;;;;5054414;28;50989;-48
2022/05/08 08:10:42;;;;;;;;;47.75;38.50;;;;;;;;5056137;28;51104;-51
2022/05/08 08:13:08;;;;;;;;;52.75;41.25;;;;;;;;5057347;28;51674;-48
2022/05/08 08:15:33;;;;;;;;;49.50;39.25;;;;;;;;5050875;28;50973;-49
2022/05/08 08:17:59;;;;;;;;;47.50;40.25;;;;;;;;5052877;28;51224;-50
2022/05/08 08:20:24;;;;;;;;;49.25;39.25;;;;;;;;5059056;28;51128;-49
2022/05/08 08:22:49;;;;;;;;;49.25;39.75;;;;;;;;5056256;28;51650;-49
2022/05/08 08:25:14;;;;;;;;;47.75;39.25;;;;;;;;5051133;28;51102;-48
2022/05/08 08:27:40;;;;;;;;;51.25;41.00;;;;;;;;5055789;28;50993;-50
2022/05/08 08:30:07;;;;;;;;;49.25;40.75;;;;;;;;5052620;28;51113;-52
2022/05/08 08:32:32;;;;;;;;;48.50;40.25;;;;;;;;5055121;28;52128;-50
2022/05/08 08:34:58;;;;;;;;;50.75;41.00;;;;;;;;5055648;28;51155;-50
2022/05/08 08:37:23;;;;;;;;;47.25;40.00;;;;;;;;5051169;28;51676;-50
2022/05/08 08:39:48;;;;;;;;;49.00;41.00;;;;;;;;5063421;28;51346;-49
2022/05/08 08:42:30;;;;;;;;;50.00;39.25;;;;;;;;5063829;28;51655;-49
2022/05/08 08:47:49;;;;;;;;;47.00;40.00;;;;;;;;5055267;28;50958;-50
2022/05/08 08:50:16;;;;;;;;;44.25;38.00;;;;;;;;5051994;28;51412;-50
2022/05/08 08:52:43;;;;;;;;;48.75;40.75;;;;;;;;5050376;28;52972;-52
2022/05/08 08:55:08;;;;;;;;;49.75;40.00;;;;;;;;5068134;28;51027;-49
2022/05/08 08:57:34;;;;;;;;;51.50;42.25;;;;;;;;5051145;28;51127;-53
2022/05/08 08:59:59;;;;;;;;;50.75;40.75;;;;;;;;5066876;28;51365;-48
2022/05/08 09:02:28;;;;;;;;;50.00;39.50;;;;;;;;5051761;28;52110;-52
2022/05/08 09:04:54;;;;;;;;;52.75;43.00;;;;;;;;5059771;28;51001;-50
2022/05/08 09:07:38;;;;;;;;;49.25;40.50;;;;;;;;5037309;28;51155;-49
2022/05/08 09:10:20;;;;;;;;;49.75;41.75;;;;;;;;5033139;28;52236;-52
2022/05/08 09:13:05;;;;;;;;;50.25;40.75;;;;;;;;5043908;28;53375;-51
2022/05/08 09:15:35;;;;;;;;;51.00;41.25;;;;;;;;5050781;28;50927;-52
2022/05/08 09:18:04;;;;;;;;;53.25;44.00;;;;;;;;5050833;28;51056;-51
2022/05/08 09:20:31;;;;;;;;;46.75;39.50;;;;;;;;5041250;28;51069;-49
2022/05/08 09:22:59;;;;;;;;;48.00;40.00;;;;;;;;5043835;28;53554;-52
2022/05/08 09:25:42;;;;;;;;;53.00;43.25;;;;;;;;5050931;28;51020;-49
2022/05/08 09:28:07;;;;;;;;;53.25;41.75;;;;;;;;5056420;28;51243;-50
2022/05/08 09:30:32;;;;;;;;;48.75;41.00;;;;;;;;5057295;28;51163;-53
2022/05/08 09:32:57;;;;;;;;;49.50;39.00;;;;;;;;5054125;28;51988;-49
2022/05/08 09:35:22;;;;;;;;;48.25;40.00;;;;;;;;5071784;28;50897;-50
2022/05/08 09:37:52;;;;;;;;;52.00;42.75;;;;;;;;5067816;28;51060;-49
2022/05/08 09:40:18;;;;;;;;;48.75;41.00;;;;;;;;5054271;28;51365;-50
2022/05/08 09:42:43;;;;;;;;;49.50;41.50;;;;;;;;5056014;28;51057;-51
2022/05/08 09:45:09;;;;;;;;;50.75;40.25;;;;;;;;5062048;28;51011;-53
2022/05/08 09:47:42;;;;;;;;;48.50;39.25;;;;;;;;5053683;28;51106;-52
2022/05/08 09:50:08;;;;;;;;;50.00;42.00;;;;;;;;5059391;28;51265;-53
2022/05/08 09:52:35;;;;;;;;;50.50;41.00;;;;;;;;5043896;28;51317;-51
2022/05/08 09:55:01;;;;;;;;;47.75;39.25;;;;;;;;5039249;28;51252;-50
2022/05/08 09:57:26;;;;;;;;;49.75;39.75;;;;;;;;5068723;28;51122;-49
2022/05/08 09:59:52;;;;;;;;;48.75;40.25;;;;;;;;5061975;28;51096;-50
2022/05/08 10:02:17;;;;;;;;;51.50;42.75;;;;;;;;5061508;28;52795;-51
2022/05/08 10:04:43;;;;;;;;;47.50;40.75;;;;;;;;5058517;28;50930;-51
2022/05/08 10:07:11;;;;;;;;;51.75;41.75;;;;;;;;5053128;28;51666;-49
2022/05/08 10:15:23;;;;;;;;;52.00;41.50;;;;;;;;5053409;28;51127;-51
2022/05/08 10:17:49;;;;;;;;;52.00;40.75;;;;;;;;5053293;28;51004;-52
2022/05/08 10:20:14;;;;;;;;;48.50;40.25;;;;;;;;5061927;28;51103;-49
2022/05/08 10:22:48;;;;;;;;;49.75;41.75;;;;;;;;5035310;28;51063;-53
2022/05/08 10:25:15;;;;;;;;;44.50;37.25;;;;;;;;5061178;28;51075;-50
2022/05/08 10:27:40;;;;;;;;;46.50;38.75;;;;;;;;5069987;28;51093;-51
2022/05/08 10:30:05;;;;;;;;;47.00;39.50;;;;;;;;5055024;28;51202;-49
2022/05/08 10:32:31;;;;;;;;;42.75;37.00;;;;;;;;5053275;28;51194;-50
2022/05/08 10:35:09;;;;;;;;;43.00;37.50;;;;;;;;5052706;28;51020;-49
2022/05/08 10:37:35;;;;;;;;;45.50;37.50;;;;;;;;5041750;28;51161;-52
2022/05/08 10:40:01;;;;;;;;;46.50;39.25;;;;;;;;5053054;28;51266;-51
2022/05/08 10:42:29;;;;;;;;;45.00;38.00;;;;;;;;5055435;28;52264;-50
2022/05/08 10:44:58;;;;;;;;;48.00;38.25;;;;;;;;5050950;28;51096;-50
2022/05/08 10:47:32;;;;;;;;;44.50;37.25;;;;;;;;5058488;28;51165;-51
2022/05/08 10:49:58;;;;;;;;;48.75;39.00;;;;;;;;5056832;28;51006;-50
2022/05/08 10:52:23;;;;;;;;;42.00;35.00;;;;;;;;5058980;28;51706;-50
2022/05/08 10:54:55;;;;;;;;;46.75;38.00;;;;;;;;5055512;28;50898;-51
2022/05/08 10:57:30;;;;;;;;;50.50;39.50;;;;;;;;5063212;28;51222;-50
2022/05/08 10:59:56;;;;;;;;;46.00;38.25;;;;;;;;5051885;28;51333;-52
2022/05/08 11:02:40;;;;;;;;;46.25;38.25;;;;;;;;5054319;28;51410;-52
2022/05/08 11:05:13;;;;;;;;;53.50;40.75;;;;;;;;5050557;28;50964;-50
2022/05/08 11:07:39;;;;;;;;;46.50;38.50;;;;;;;;5056282;28;51502;-51
2022/05/08 11:10:14;;;;;;;;;47.75;39.25;;;;;;;;5070127;28;51406;-52
2022/05/08 11:13:00;;;;;;;;;48.00;38.50;;;;;;;;5062279;28;51726;-51
2022/05/08 11:15:28;;;;;;;;;47.75;39.50;;;;;;;;5061032;28;51119;-51
2022/05/08 11:18:15;;;;;;;;;49.50;39.50;;;;;;;;5057797;28;51153;-51
2022/05/08 11:20:43;;;;;;;;;46.75;38.25;;;;;;;;5054041;28;51451;-51
2022/05/08 11:23:12;;;;;;;;;49.00;40.50;;;;;;;;5058615;28;51774;-52
2022/05/08 11:25:38;;;;;;;;;48.25;39.50;;;;;;;;5039359;28;51138;-51
2022/05/08 11:28:03;;;;;;;;;44.75;37.50;;;;;;;;5051606;28;51181;-52
2022/05/08 11:30:38;;;;;;;;;46.50;38.75;;;;;;;;5053465;28;51283;-50
2022/05/08 11:36:07;;;;;;;;;47.75;39.75;;;;;;;;5050524;28;51169;-49
2022/05/08 11:38:58;;;;;;;;;45.00;37.00;;;;;;;;5055678;28;51125;-54
2022/05/08 11:41:34;;;;;;;;;50.00;42.50;;;;;;;;5047774;28;51885;-49
2022/05/08 11:44:03;;;;;;;;;48.75;41.25;;;;;;;;5055557;28;51721;-51
2022/05/08 11:46:32;;;;;;;;;51.25;42.50;;;;;;;;5064959;28;51694;-50
2022/05/08 11:48:58;;;;;;;;;47.50;39.50;;;;;;;;5061636;28;51264;-52
2022/05/08 11:51:23;;;;;;;;;44.75;38.00;;;;;;;;5062337;28;50942;-52
2022/05/08 11:53:50;;;;;;;;;40.50;35.75;;;;;;;;5070119;28;51610;-51
2022/05/08 11:56:24;;;;;;;;;40.50;35.50;;;;;;;;5057692;28;51842;-52
2022/05/08 11:58:50;;;;;;;;;45.25;38.00;;;;;;;;5057617;28;51251;-54
2022/05/08 12:01:27;;;;;;;;;44.75;37.00;;;;;;;;5063245;28;51105;-52
2022/05/08 12:03:53;;;;;;;;;46.50;37.25;;;;;;;;5065775;28;51810;-51
2022/05/08 12:06:18;;;;;;;;;44.75;37.00;;;;;;;;5054831;28;51301;-53
2022/05/08 12:08:44;;;;;;;;;39.00;34.25;;;;;;;;5065942;28;51241;-52
2022/05/08 12:11:27;;;;;;;;;41.25;35.00;;;;;;;;5055508;28;51126;-52
2022/05/08 12:14:03;;;;;;;;;46.75;38.50;;;;;;;;5051367;28;51782;-52
2022/05/08 12:16:28;;;;;;;;;36.00;33.25;;;;;;;;5051421;28;51025;-51
2022/05/08 12:19:09;;;;;;;;;41.75;35.50;;;;;;;;5051537;28;51083;-53
2022/05/08 12:21:35;;;;;;;;;49.50;41.50;;;;;;;;5051129;28;51112;-52
2022/05/08 12:24:06;;;;;;;;;43.25;36.50;;;;;;;;5053481;28;51908;-51
2022/05/08 12:26:31;;;;;;;;;37.00;33.75;;;;;;;;5052821;28;51032;-53
2022/05/08 12:28:57;;;;;;;;;44.50;37.75;;;;;;;;5050678;28;51984;-54
2022/05/08 12:31:22;;;;;;;;;38.25;34.75;;;;;;;;5053418;28;51369;-53
2022/05/08 12:33:47;;;;;;;;;39.00;34.75;;;;;;;;5055280;28;51161;-52
2022/05/08 12:36:12;;;;;;;;;40.75;35.25;;;;;;;;5045435;28;51096;-51
2022/05/08 12:38:38;;;;;;;;;38.50;34.25;;;;;;;;5063495;28;51274;-52
2022/05/08 12:41:03;;;;;;;;;38.75;35.00;;;;;;;;5056601;28;51366;-53
2022/05/08 12:43:29;;;;;;;;;39.50;33.75;;;;;;;;5049827;28;51164;-51
2022/05/08 12:45:54;;;;;;;;;48.75;39.50;;;;;;;;5054564;28;51625;-51
2022/05/08 12:48:21;;;;;;;;;41.75;36.00;;;;;;;;5051645;28;51402;-50
2022/05/08 12:50:48;;;;;;;;;39.50;35.00;;;;;;;;5054481;28;51385;-51
2022/05/08 12:53:13;;;;;;;;;38.50;35.00;;;;;;;;5055608;28;51796;-50
2022/05/08 12:55:38;;;;;;;;;41.50;35.25;;;;;;;;5054190;28;51237;-51
2022/05/08 13:00:47;;;;;;;;;33.25;31.50;;;;;;;;5047504;28;51261;-51
2022/05/08 13:03:15;;;;;;;;;30.75;30.00;;;;;;;;5057128;28;51897;-51
2022/05/08 13:05:41;;;;;;;;;34.25;32.50;;;;;;;;5054531;28;51352;-50
2022/05/08 13:08:06;;;;;;;;;27.75;26.75;;;;;;;;5056707;28;51205;-51
2022/05/08 13:10:34;;;;;;;;;34.50;32.50;;;;;;;;5040464;28;51372;-51
2022/05/08 13:13:00;;;;;;;;;29.50;27.25;;;;;;;;5043481;28;52034;-50
2022/05/08 13:15:25;;;;;;;;;32.75;30.25;;;;;;;;5057652;28;51098;-57
2022/05/08 13:17:51;;;;;;;;;28.50;27.25;;;;;;;;5031434;28;51393;-51
2022/05/08 13:20:16;;;;;;;;;30.00;29.75;;;;;;;;5027859;28;51950;-50
2022/05/08 13:22:42;;;;;;;;;31.50;30.00;;;;;;;;5057787;28;51886;-49
2022/05/08 13:25:08;;;;;;;;;29.00;29.00;;;;;;;;5053680;28;51013;-59
2022/05/08 13:27:34;;;;;;;;;32.75;30.25;;;;;;;;5055273;28;52152;-50
2022/05/08 13:29:59;;;;;;;;;29.25;29.25;;;;;;;;5053634;28;51005;-50
2022/05/08 13:32:24;;;;;;;;;30.00;29.25;;;;;;;;5071181;28;50928;-52
2022/05/08 13:34:49;;;;;;;;;28.25;25.25;;;;;;;;5073392;28;50929;-51
2022/05/08 13:37:15;;;;;;;;;27.75;26.75;;;;;;;;5060456;28;51162;-51
2022/05/08 13:39:40;;;;;;;;;30.00;29.75;;;;;;;;5070905;28;51151;-50
2022/05/08 13:42:07;;;;;;;;;29.00;28.25;;;;;;;;5061174;28;51010;-50
2022/05/08 13:44:33;;;;;;;;;29.00;25.75;;;;;;;;5057478;28;51020;-53
2022/05/08 13:46:58;;;;;;;;;28.00;27.25;;;;;;;;5072127;28;50837;-51
2022/05/08 13:49:24;;;;;;;;;25.50;24.75;;;;;;;;5054287;28;50955;-52
2022/05/08 13:51:51;;;;;;;;;21.75;21.75;;;;;;;;5053032;28;51040;-53
2022/05/08 13:54:16;;;;;;;;;22.25;22.25;;;;;;;;5057120;28;51313;-51
2022/05/08 13:56:45;;;;;;;;;23.50;23.25;;;;;;;;5073793;28;50932;-50
2022/05/08 13:59:10;;;;;;;;;23.25;23.25;;;;;;;;5063587;28;51164;-54
2022/05/08 14:01:36;;;;;;;;;22.50;21.50;;;;;;;;5055245;28;51731;-55
2022/05/08 14:04:01;;;;;;;;;22.25;22.00;;;;;;;;5061393;28;50924;-49
2022/05/08 14:06:28;;;;;;;;;21.75;21.00;;;;;;;;5065074;28;50913;-50
2022/05/08 14:08:53;;;;;;;;;23.50;22.75;;;;;;;;5072333;28;50917;-50
2022/05/08 14:11:18;;;;;;;;;26.00;24.00;;;;;;;;5069987;28;51065;-51
2022/05/08 14:13:43;;;;;;;;;22.25;19.75;;;;;;;;5066254;28;50808;-52
2022/05/08 14:16:09;;;;;;;;;15.33;15.33;;;;;;;;5052056;28;51252;-50
2022/05/08 14:18:35;;;;;;;;;18.25;18.00;;;;;;;;5052403;28;50997;-52
2022/05/08 14:21:00;;;;;;;;;21.33;21.33;;;;;;;;5052910;28;51009;-54
2022/05/08 14:23:26;;;;;;;;;17.25;17.25;;;;;;;;5067412;28;51320;-54
2022/05/08 14:25:51;;;;;;;;;19.00;18.25;;;;;;;;5051876;28;51531;-51
2022/05/08 14:28:16;;;;;;;;;17.00;15.00;;;;;;;;5053325;28;51155;-51
2022/05/08 14:36:01;;;;;;;;;16.67;16.00;;;;;;;;5052327;28;51950;-53
2022/05/08 14:36:12;;;;;;;;;18.00;17.33;;;;;;;;5052887;28;51105;-51
2022/05/08 14:38:37;;;;;;;;;20.75;19.75;;;;;;;;5062000;28;51191;-50
2022/05/08 14:41:04;;;;;;;;;15.67;15.33;;;;;;;;5052507;28;51175;-50
2022/05/08 14:43:29;;;;;;;;;18.00;18.00;;;;;;;;5064966;28;51227;-52
2022/05/08 14:45:56;;;;;;;;;13.00;13.00;;;;;;;;5063034;28;51010;-55
2022/05/08 14:48:21;;;;;;;;;15.33;15.00;;;;;;;;5035125;28;50938;-53